sensor_id;sensor_type;location;lat;lon;timestamp;temperature;humidity
7461;DHT22;6757;52.258;12.840;2022-07-10T00:00:17;13.10;99.90
7461;DHT22;6757;52.258;12.840;2022-07-10T00:02:46;13.20;99.90
7461;DHT22;6757;52.258;12.840;2022-07-10T00:05:13;13.20;99.90
7461;DHT22;6757;52.258;12.840;2022-07-10T00:07:40;13.20;99.90
7461;DHT22;6757;52.258;12.840;2022-07-10T00:10:07;13.20;99.90
7461;DHT22;6757;52.258;12.840;2022-07-10T00:12:36;13.20;99.90
7461;DHT22;6757;52.258;12.840;2022-07-10T00:15:03;13.20;99.90
7461;DHT22;6757;52.258;12.840;2022-07-10T00:17:31;13.20;99.90
7461;DHT22;6757;52.258;12.840;2022-07-10T00:19:58;13.20;99.90
7461;DHT22;6757;52.258;12.840;2022-07-10T00:22:25;13.20;99.90
7461;DHT22;6757;52.258;12.840;2022-07-10T00:24:52;13.30;99.90
7461;DHT22;6757;52.258;12.840;2022-07-10T00:27:19;13.30;99.90
7461;DHT22;6757;52.258;12.840;2022-07-10T00:29:48;13.30;99.90
7461;DHT22;6757;52.258;12.840;2022-07-10T00:32:15;13.30;99.90
7461;DHT22;6757;52.258;12.840;2022-07-10T00:34:41;13.30;99.90
7461;DHT22;6757;52.258;12.840;2022-07-10T00:37:08;13.40;99.90
7461;DHT22;6757;52.258;12.840;2022-07-10T00:39:36;13.40;99.90
7461;DHT22;6757;52.258;12.840;2022-07-10T00:42:07;13.40;99.90
7461;DHT22;6757;52.258;12.840;2022-07-10T00:44:35;13.40;99.90
7461;DHT22;6757;52.258;12.840;2022-07-10T00:47:05;13.40;99.90
7461;DHT22;6757;52.258;12.840;2022-07-10T00:49:32;13.40;99.90
7461;DHT22;6757;52.258;12.840;2022-07-10T00:52:02;13.40;99.90
7461;DHT22;6757;52.258;12.840;2022-07-10T00:54:33;13.50;99.90
7461;DHT22;6757;52.258;12.840;2022-07-10T00:57:03;13.50;99.90
7461;DHT22;6757;52.258;12.840;2022-07-10T00:59:31;13.50;99.90
7461;DHT22;6757;52.258;12.840;2022-07-10T01:01:58;13.50;99.90
7461;DHT22;6757;52.258;12.840;2022-07-10T01:04:27;13.40;99.90
7461;DHT22;6757;52.258;12.840;2022-07-10T01:06:54;13.40;99.90
7461;DHT22;6757;52.258;12.840;2022-07-10T01:09:21;13.40;99.90
7461;DHT22;6757;52.258;12.840;2022-07-10T01:11:48;13.40;99.90
7461;DHT22;6757;52.258;12.840;2022-07-10T01:14:15;13.40;99.90
7461;DHT22;6757;52.258;12.840;2022-07-10T01:16:43;13.40;99.90
7461;DHT22;6757;52.258;12.840;2022-07-10T01:19:10;13.40;99.90
7461;DHT22;6757;52.258;12.840;2022-07-10T01:21:38;13.40;99.90
7461;DHT22;6757;52.258;12.840;2022-07-10T01:24:06;13.40;99.90
7461;DHT22;6757;52.258;12.840;2022-07-10T01:26:34;13.40;99.90
7461;DHT22;6757;52.258;12.840;2022-07-10T01:29:03;13.40;99.90
7461;DHT22;6757;52.258;12.840;2022-07-10T01:31:32;13.40;99.90
7461;DHT22;6757;52.258;12.840;2022-07-10T01:33:59;13.40;99.90
7461;DHT22;6757;52.258;12.840;2022-07-10T01:36:28;13.40;99.90
7461;DHT22;6757;52.258;12.840;2022-07-10T01:38:57;13.40;99.90
7461;DHT22;6757;52.258;12.840;2022-07-10T01:41:25;13.40;99.90
7461;DHT22;6757;52.258;12.840;2022-07-10T01:43:52;13.40;99.90
7461;DHT22;6757;52.258;12.840;2022-07-10T01:46:20;13.40;99.90
7461;DHT22;6757;52.258;12.840;2022-07-10T01:48:47;13.30;99.90
7461;DHT22;6757;52.258;12.840;2022-07-10T01:51:14;13.30;99.90
7461;DHT22;6757;52.258;12.840;2022-07-10T01:53:42;13.30;99.90
7461;DHT22;6757;52.258;12.840;2022-07-10T01:56:11;13.30;99.90
7461;DHT22;6757;52.258;12.840;2022-07-10T01:58:40;13.30;99.90
7461;DHT22;6757;52.258;12.840;2022-07-10T02:01:08;13.30;99.90
7461;DHT22;6757;52.258;12.840;2022-07-10T02:03:35;13.30;99.90
7461;DHT22;6757;52.258;12.840;2022-07-10T02:06:19;13.30;99.90
7461;DHT22;6757;52.258;12.840;2022-07-10T02:08:46;13.30;99.90
7461;DHT22;6757;52.258;12.840;2022-07-10T02:11:14;13.20;99.90
7461;DHT22;6757;52.258;12.840;2022-07-10T02:13:41;13.20;99.90
7461;DHT22;6757;52.258;12.840;2022-07-10T02:16:08;13.30;99.90
7461;DHT22;6757;52.258;12.840;2022-07-10T02:18:36;13.20;99.90
7461;DHT22;6757;52.258;12.840;2022-07-10T02:21:03;13.20;99.90
7461;DHT22;6757;52.258;12.840;2022-07-10T02:23:30;13.20;99.90
7461;DHT22;6757;52.258;12.840;2022-07-10T02:25:57;13.20;99.90
7461;DHT22;6757;52.258;12.840;2022-07-10T02:28:25;13.20;99.90
7461;DHT22;6757;52.258;12.840;2022-07-10T02:30:52;13.20;99.90
7461;DHT22;6757;52.258;12.840;2022-07-10T02:33:20;13.10;99.90
7461;DHT22;6757;52.258;12.840;2022-07-10T02:35:46;13.10;99.90
7461;DHT22;6757;52.258;12.840;2022-07-10T02:38:13;13.10;99.90
7461;DHT22;6757;52.258;12.840;2022-07-10T02:40:40;13.00;99.90
7461;DHT22;6757;52.258;12.840;2022-07-10T02:43:08;13.00;99.90
7461;DHT22;6757;52.258;12.840;2022-07-10T02:45:36;13.00;99.90
7461;DHT22;6757;52.258;12.840;2022-07-10T02:48:03;12.90;99.90
7461;DHT22;6757;52.258;12.840;2022-07-10T02:50:31;12.90;99.90
7461;DHT22;6757;52.258;12.840;2022-07-10T02:52:57;12.90;99.90
7461;DHT22;6757;52.258;12.840;2022-07-10T02:55:24;12.90;99.90
7461;DHT22;6757;52.258;12.840;2022-07-10T02:57:52;12.90;99.90
7461;DHT22;6757;52.258;12.840;2022-07-10T03:00:19;12.80;99.90
7461;DHT22;6757;52.258;12.840;2022-07-10T03:02:47;12.80;99.90
7461;DHT22;6757;52.258;12.840;2022-07-10T03:05:14;12.80;99.90
7461;DHT22;6757;52.258;12.840;2022-07-10T03:07:41;12.80;99.90
7461;DHT22;6757;52.258;12.840;2022-07-10T03:10:08;12.70;99.90
7461;DHT22;6757;52.258;12.840;2022-07-10T03:12:36;12.70;99.90
7461;DHT22;6757;52.258;12.840;2022-07-10T03:15:03;12.70;99.90
7461;DHT22;6757;52.258;12.840;2022-07-10T03:17:31;12.70;99.90
7461;DHT22;6757;52.258;12.840;2022-07-10T03:19:59;12.70;99.90
7461;DHT22;6757;52.258;12.840;2022-07-10T03:22:26;12.70;99.90
7461;DHT22;6757;52.258;12.840;2022-07-10T03:24:54;12.60;99.90
7461;DHT22;6757;52.258;12.840;2022-07-10T03:27:21;12.60;99.90
7461;DHT22;6757;52.258;12.840;2022-07-10T03:29:48;12.60;99.90
7461;DHT22;6757;52.258;12.840;2022-07-10T03:32:15;12.60;99.90
7461;DHT22;6757;52.258;12.840;2022-07-10T03:34:42;12.60;99.90
7461;DHT22;6757;52.258;12.840;2022-07-10T03:37:10;12.60;99.90
7461;DHT22;6757;52.258;12.840;2022-07-10T03:39:37;12.60;99.90
7461;DHT22;6757;52.258;12.840;2022-07-10T03:42:05;12.60;99.90
7461;DHT22;6757;52.258;12.840;2022-07-10T03:44:32;12.60;99.90
7461;DHT22;6757;52.258;12.840;2022-07-10T03:46:59;12.60;99.90
7461;DHT22;6757;52.258;12.840;2022-07-10T03:49:26;12.60;99.90
7461;DHT22;6757;52.258;12.840;2022-07-10T03:51:53;12.60;99.90
7461;DHT22;6757;52.258;12.840;2022-07-10T03:54:21;12.60;99.90
7461;DHT22;6757;52.258;12.840;2022-07-10T03:56:49;12.60;99.90
7461;DHT22;6757;52.258;12.840;2022-07-10T03:59:33;12.60;99.90
7461;DHT22;6757;52.258;12.840;2022-07-10T04:02:00;12.60;99.90
7461;DHT22;6757;52.258;12.840;2022-07-10T04:04:27;12.60;99.90
7461;DHT22;6757;52.258;12.840;2022-07-10T04:06:54;12.60;99.90
7461;DHT22;6757;52.258;12.840;2022-07-10T04:09:22;12.60;99.90
7461;DHT22;6757;52.258;12.840;2022-07-10T04:11:49;12.60;99.90
7461;DHT22;6757;52.258;12.840;2022-07-10T04:14:16;12.70;99.90
7461;DHT22;6757;52.258;12.840;2022-07-10T04:16:43;12.70;99.90
7461;DHT22;6757;52.258;12.840;2022-07-10T04:19:10;12.70;99.90
7461;DHT22;6757;52.258;12.840;2022-07-10T04:21:37;12.70;99.90
7461;DHT22;6757;52.258;12.840;2022-07-10T04:24:04;12.70;99.90
7461;DHT22;6757;52.258;12.840;2022-07-10T04:26:33;12.60;99.90
7461;DHT22;6757;52.258;12.840;2022-07-10T04:29:00;12.60;99.90
7461;DHT22;6757;52.258;12.840;2022-07-10T04:31:27;12.60;99.90
7461;DHT22;6757;52.258;12.840;2022-07-10T04:33:54;12.50;99.90
7461;DHT22;6757;52.258;12.840;2022-07-10T04:36:22;12.50;99.90
7461;DHT22;6757;52.258;12.840;2022-07-10T04:38:49;12.50;99.90
7461;DHT22;6757;52.258;12.840;2022-07-10T04:41:16;12.50;99.90
7461;DHT22;6757;52.258;12.840;2022-07-10T04:43:45;12.50;99.90
7461;DHT22;6757;52.258;12.840;2022-07-10T04:46:12;12.50;99.90
7461;DHT22;6757;52.258;12.840;2022-07-10T04:48:39;12.50;99.90
7461;DHT22;6757;52.258;12.840;2022-07-10T04:51:06;12.50;99.90
7461;DHT22;6757;52.258;12.840;2022-07-10T04:53:33;12.50;99.90
7461;DHT22;6757;52.258;12.840;2022-07-10T04:55:59;12.60;99.90
7461;DHT22;6757;52.258;12.840;2022-07-10T04:58:27;12.60;99.90
7461;DHT22;6757;52.258;12.840;2022-07-10T05:00:56;12.60;99.90
7461;DHT22;6757;52.258;12.840;2022-07-10T05:03:23;12.70;99.90
7461;DHT22;6757;52.258;12.840;2022-07-10T05:05:50;12.70;99.90
7461;DHT22;6757;52.258;12.840;2022-07-10T05:08:17;12.70;99.90
7461;DHT22;6757;52.258;12.840;2022-07-10T05:10:44;12.80;99.90
7461;DHT22;6757;52.258;12.840;2022-07-10T05:13:11;12.80;99.90
7461;DHT22;6757;52.258;12.840;2022-07-10T05:15:39;12.80;99.90
7461;DHT22;6757;52.258;12.840;2022-07-10T05:18:07;12.90;99.90
7461;DHT22;6757;52.258;12.840;2022-07-10T05:20:34;12.90;99.90
7461;DHT22;6757;52.258;12.840;2022-07-10T05:23:03;12.90;99.90
7461;DHT22;6757;52.258;12.840;2022-07-10T05:25:30;12.90;99.90
7461;DHT22;6757;52.258;12.840;2022-07-10T05:27:58;13.00;99.90
7461;DHT22;6757;52.258;12.840;2022-07-10T05:30:25;13.00;99.90
7461;DHT22;6757;52.258;12.840;2022-07-10T05:32:52;13.00;99.90
7461;DHT22;6757;52.258;12.840;2022-07-10T05:35:20;13.00;99.90
7461;DHT22;6757;52.258;12.840;2022-07-10T05:37:47;13.00;99.90
7461;DHT22;6757;52.258;12.840;2022-07-10T05:40:14;13.10;99.90
7461;DHT22;6757;52.258;12.840;2022-07-10T05:42:41;13.10;99.90
7461;DHT22;6757;52.258;12.840;2022-07-10T05:45:08;13.20;99.90
7461;DHT22;6757;52.258;12.840;2022-07-10T05:47:36;13.30;99.90
7461;DHT22;6757;52.258;12.840;2022-07-10T05:50:03;13.30;99.90
7461;DHT22;6757;52.258;12.840;2022-07-10T05:52:32;13.40;99.90
7461;DHT22;6757;52.258;12.840;2022-07-10T05:54:58;13.50;99.90
7461;DHT22;6757;52.258;12.840;2022-07-10T05:57:25;13.60;99.90
7461;DHT22;6757;52.258;12.840;2022-07-10T05:59:52;13.60;99.90
7461;DHT22;6757;52.258;12.840;2022-07-10T06:02:19;13.70;99.90
7461;DHT22;6757;52.258;12.840;2022-07-10T06:04:46;13.70;99.90
7461;DHT22;6757;52.258;12.840;2022-07-10T06:07:13;13.80;99.90
7461;DHT22;6757;52.258;12.840;2022-07-10T06:09:41;13.80;99.90
7461;DHT22;6757;52.258;12.840;2022-07-10T06:12:08;13.80;99.90
7461;DHT22;6757;52.258;12.840;2022-07-10T06:14:35;13.90;99.90
7461;DHT22;6757;52.258;12.840;2022-07-10T06:17:03;13.90;99.90
7461;DHT22;6757;52.258;12.840;2022-07-10T06:19:30;14.00;99.90
7461;DHT22;6757;52.258;12.840;2022-07-10T06:21:57;14.10;99.90
7461;DHT22;6757;52.258;12.840;2022-07-10T06:24:43;14.10;99.90
7461;DHT22;6757;52.258;12.840;2022-07-10T06:27:10;14.10;99.90
7461;DHT22;6757;52.258;12.840;2022-07-10T06:29:37;14.20;99.90
7461;DHT22;6757;52.258;12.840;2022-07-10T06:32:04;14.20;99.90
7461;DHT22;6757;52.258;12.840;2022-07-10T06:34:32;14.20;99.90
7461;DHT22;6757;52.258;12.840;2022-07-10T06:36:59;14.30;99.90
7461;DHT22;6757;52.258;12.840;2022-07-10T06:39:28;14.30;99.90
7461;DHT22;6757;52.258;12.840;2022-07-10T06:42:01;14.40;99.90
7461;DHT22;6757;52.258;12.840;2022-07-10T06:44:29;14.40;99.90
7461;DHT22;6757;52.258;12.840;2022-07-10T06:46:56;14.50;99.90
7461;DHT22;6757;52.258;12.840;2022-07-10T06:49:41;14.50;99.90
7461;DHT22;6757;52.258;12.840;2022-07-10T06:52:08;14.60;99.90
7461;DHT22;6757;52.258;12.840;2022-07-10T06:54:35;14.70;99.90
7461;DHT22;6757;52.258;12.840;2022-07-10T06:57:05;14.80;99.90
7461;DHT22;6757;52.258;12.840;2022-07-10T06:59:32;14.90;99.90
7461;DHT22;6757;52.258;12.840;2022-07-10T07:01:59;15.00;99.90
7461;DHT22;6757;52.258;12.840;2022-07-10T07:04:27;15.00;99.90
7461;DHT22;6757;52.258;12.840;2022-07-10T07:06:54;15.00;99.90
7461;DHT22;6757;52.258;12.840;2022-07-10T07:09:20;15.00;99.90
7461;DHT22;6757;52.258;12.840;2022-07-10T07:11:47;15.00;99.90
7461;DHT22;6757;52.258;12.840;2022-07-10T07:14:16;15.00;99.90
7461;DHT22;6757;52.258;12.840;2022-07-10T07:16:42;15.10;99.90
7461;DHT22;6757;52.258;12.840;2022-07-10T07:19:11;15.10;99.90
7461;DHT22;6757;52.258;12.840;2022-07-10T07:21:43;15.10;99.90
7461;DHT22;6757;52.258;12.840;2022-07-10T07:24:28;15.10;99.90
7461;DHT22;6757;52.258;12.840;2022-07-10T07:26:55;15.10;99.90
7461;DHT22;6757;52.258;12.840;2022-07-10T07:29:23;15.10;99.90
7461;DHT22;6757;52.258;12.840;2022-07-10T07:31:50;15.20;99.90
7461;DHT22;6757;52.258;12.840;2022-07-10T07:34:20;15.30;99.90
7461;DHT22;6757;52.258;12.840;2022-07-10T07:36:47;15.30;99.90
7461;DHT22;6757;52.258;12.840;2022-07-10T07:39:14;15.30;99.90
7461;DHT22;6757;52.258;12.840;2022-07-10T07:41:41;15.30;99.90
7461;DHT22;6757;52.258;12.840;2022-07-10T07:44:08;15.20;99.90
7461;DHT22;6757;52.258;12.840;2022-07-10T07:46:36;15.20;99.90
7461;DHT22;6757;52.258;12.840;2022-07-10T07:49:03;15.10;99.90
7461;DHT22;6757;52.258;12.840;2022-07-10T07:51:30;15.10;99.90
7461;DHT22;6757;52.258;12.840;2022-07-10T07:53:57;15.10;99.90
7461;DHT22;6757;52.258;12.840;2022-07-10T07:56:24;15.10;99.90
7461;DHT22;6757;52.258;12.840;2022-07-10T07:58:51;15.10;99.90
7461;DHT22;6757;52.258;12.840;2022-07-10T08:01:17;15.20;99.90
7461;DHT22;6757;52.258;12.840;2022-07-10T08:03:46;15.30;99.90
7461;DHT22;6757;52.258;12.840;2022-07-10T08:06:13;15.40;99.90
7461;DHT22;6757;52.258;12.840;2022-07-10T08:08:40;15.50;99.90
7461;DHT22;6757;52.258;12.840;2022-07-10T08:11:07;15.50;99.90
7461;DHT22;6757;52.258;12.840;2022-07-10T08:13:34;15.50;99.90
7461;DHT22;6757;52.258;12.840;2022-07-10T08:16:01;15.40;99.90
7461;DHT22;6757;52.258;12.840;2022-07-10T08:18:28;15.40;99.90
7461;DHT22;6757;52.258;12.840;2022-07-10T08:20:56;15.30;99.90
7461;DHT22;6757;52.258;12.840;2022-07-10T08:23:23;15.30;99.90
7461;DHT22;6757;52.258;12.840;2022-07-10T08:25:50;15.30;99.90
7461;DHT22;6757;52.258;12.840;2022-07-10T08:28:17;15.50;99.90
7461;DHT22;6757;52.258;12.840;2022-07-10T08:30:44;15.60;99.90
7461;DHT22;6757;52.258;12.840;2022-07-10T08:33:11;15.70;99.90
7461;DHT22;6757;52.258;12.840;2022-07-10T08:35:38;15.80;99.90
7461;DHT22;6757;52.258;12.840;2022-07-10T08:38:07;15.90;99.90
7461;DHT22;6757;52.258;12.840;2022-07-10T08:40:35;15.90;99.90
7461;DHT22;6757;52.258;12.840;2022-07-10T08:43:03;15.80;99.90
7461;DHT22;6757;52.258;12.840;2022-07-10T08:45:32;15.90;99.90
7461;DHT22;6757;52.258;12.840;2022-07-10T08:48:02;15.80;99.90
7461;DHT22;6757;52.258;12.840;2022-07-10T08:50:32;15.90;99.90
7461;DHT22;6757;52.258;12.840;2022-07-10T08:53:04;15.90;99.90
7461;DHT22;6757;52.258;12.840;2022-07-10T08:55:35;15.90;99.90
7461;DHT22;6757;52.258;12.840;2022-07-10T08:58:03;15.90;99.90
7461;DHT22;6757;52.258;12.840;2022-07-10T09:00:31;15.90;99.90
7461;DHT22;6757;52.258;12.840;2022-07-10T09:02:58;16.00;99.90
7461;DHT22;6757;52.258;12.840;2022-07-10T09:05:25;16.00;99.90
7461;DHT22;6757;52.258;12.840;2022-07-10T09:07:53;16.10;99.90
7461;DHT22;6757;52.258;12.840;2022-07-10T09:10:24;16.00;99.90
7461;DHT22;6757;52.258;12.840;2022-07-10T09:12:54;16.00;99.90
7461;DHT22;6757;52.258;12.840;2022-07-10T09:15:23;15.90;99.90
7461;DHT22;6757;52.258;12.840;2022-07-10T09:17:52;15.90;99.90
7461;DHT22;6757;52.258;12.840;2022-07-10T09:20:27;15.90;99.90
7461;DHT22;6757;52.258;12.840;2022-07-10T09:22:57;15.90;99.90
7461;DHT22;6757;52.258;12.840;2022-07-10T09:25:34;15.90;99.90
7461;DHT22;6757;52.258;12.840;2022-07-10T09:28:02;16.10;99.90
7461;DHT22;6757;52.258;12.840;2022-07-10T09:30:33;16.20;99.90
7461;DHT22;6757;52.258;12.840;2022-07-10T09:33:20;16.40;99.90
7461;DHT22;6757;52.258;12.840;2022-07-10T09:35:56;16.50;99.90
7461;DHT22;6757;52.258;12.840;2022-07-10T09:38:53;16.60;99.90
7461;DHT22;6757;52.258;12.840;2022-07-10T09:41:25;16.70;99.90
7461;DHT22;6757;52.258;12.840;2022-07-10T09:43:55;16.80;99.90
7461;DHT22;6757;52.258;12.840;2022-07-10T09:46:25;16.80;99.90
7461;DHT22;6757;52.258;12.840;2022-07-10T09:49:05;16.90;99.90
7461;DHT22;6757;52.258;12.840;2022-07-10T09:51:34;16.90;99.90
7461;DHT22;6757;52.258;12.840;2022-07-10T09:54:03;16.80;99.90
7461;DHT22;6757;52.258;12.840;2022-07-10T09:56:39;16.80;99.90
7461;DHT22;6757;52.258;12.840;2022-07-10T09:59:10;16.80;99.90
7461;DHT22;6757;52.258;12.840;2022-07-10T10:01:42;16.80;99.90
7461;DHT22;6757;52.258;12.840;2022-07-10T10:04:12;16.90;99.90
7461;DHT22;6757;52.258;12.840;2022-07-10T10:06:40;16.90;99.90
7461;DHT22;6757;52.258;12.840;2022-07-10T10:09:09;17.00;99.90
7461;DHT22;6757;52.258;12.840;2022-07-10T10:11:44;17.10;99.90
7461;DHT22;6757;52.258;12.840;2022-07-10T10:14:12;17.30;99.90
7461;DHT22;6757;52.258;12.840;2022-07-10T10:16:43;17.50;99.90
7461;DHT22;6757;52.258;12.840;2022-07-10T10:19:11;17.60;99.90
7461;DHT22;6757;52.258;12.840;2022-07-10T10:21:58;17.70;99.90
7461;DHT22;6757;52.258;12.840;2022-07-10T10:24:26;17.70;99.90
7461;DHT22;6757;52.258;12.840;2022-07-10T10:26:55;17.70;99.90
7461;DHT22;6757;52.258;12.840;2022-07-10T10:29:22;17.60;99.90
7461;DHT22;6757;52.258;12.840;2022-07-10T10:31:49;17.60;99.90
7461;DHT22;6757;52.258;12.840;2022-07-10T10:34:37;17.60;99.90
7461;DHT22;6757;52.258;12.840;2022-07-10T10:37:06;17.60;99.90
7461;DHT22;6757;52.258;12.840;2022-07-10T10:39:53;17.60;99.90
7461;DHT22;6757;52.258;12.840;2022-07-10T10:42:35;17.70;99.90
7461;DHT22;6757;52.258;12.840;2022-07-10T10:45:21;17.80;99.90
7461;DHT22;6757;52.258;12.840;2022-07-10T10:48:01;17.90;99.90
7461;DHT22;6757;52.258;12.840;2022-07-10T10:50:39;18.00;99.90
7461;DHT22;6757;52.258;12.840;2022-07-10T10:53:17;18.20;99.90
7461;DHT22;6757;52.258;12.840;2022-07-10T10:56:23;18.40;99.90
7461;DHT22;6757;52.258;12.840;2022-07-10T10:58:52;18.50;99.90
7461;DHT22;6757;52.258;12.840;2022-07-10T11:01:27;18.70;99.90
7461;DHT22;6757;52.258;12.840;2022-07-10T11:04:15;18.80;99.90
7461;DHT22;6757;52.258;12.840;2022-07-10T11:06:44;18.90;99.90
7461;DHT22;6757;52.258;12.840;2022-07-10T11:09:22;18.90;99.90
7461;DHT22;6757;52.258;12.840;2022-07-10T11:12:01;19.00;99.90
7461;DHT22;6757;52.258;12.840;2022-07-10T11:14:32;19.00;99.90
7461;DHT22;6757;52.258;12.840;2022-07-10T11:17:00;19.10;99.90
7461;DHT22;6757;52.258;12.840;2022-07-10T11:19:28;19.20;99.90
7461;DHT22;6757;52.258;12.840;2022-07-10T11:22:11;19.30;99.90
7461;DHT22;6757;52.258;12.840;2022-07-10T11:24:52;19.40;99.90
7461;DHT22;6757;52.258;12.840;2022-07-10T11:27:34;19.40;99.90
7461;DHT22;6757;52.258;12.840;2022-07-10T11:30:10;19.40;99.90
7461;DHT22;6757;52.258;12.840;2022-07-10T11:32:37;19.40;99.80
7461;DHT22;6757;52.258;12.840;2022-07-10T11:35:06;19.40;99.50
7461;DHT22;6757;52.258;12.840;2022-07-10T11:37:34;19.40;99.30
7461;DHT22;6757;52.258;12.840;2022-07-10T11:40:09;19.50;98.40
7461;DHT22;6757;52.258;12.840;2022-07-10T11:42:52;19.40;97.80
7461;DHT22;6757;52.258;12.840;2022-07-10T11:45:34;19.30;97.50
7461;DHT22;6757;52.258;12.840;2022-07-10T11:48:04;19.10;97.50
7461;DHT22;6757;52.258;12.840;2022-07-10T11:50:36;19.10;97.90
7461;DHT22;6757;52.258;12.840;2022-07-10T11:53:05;19.00;98.00
7461;DHT22;6757;52.258;12.840;2022-07-10T11:55:32;19.60;98.40
7461;DHT22;6757;52.258;12.840;2022-07-10T11:58:13;19.10;98.40
7461;DHT22;6757;52.258;12.840;2022-07-10T12:00:42;19.20;98.60
7461;DHT22;6757;52.258;12.840;2022-07-10T12:03:17;19.20;98.70
7461;DHT22;6757;52.258;12.840;2022-07-10T12:05:46;19.30;98.50
7461;DHT22;6757;52.258;12.840;2022-07-10T12:08:14;19.40;98.40
7461;DHT22;6757;52.258;12.840;2022-07-10T12:10:41;19.40;98.00
7461;DHT22;6757;52.258;12.840;2022-07-10T12:13:10;19.50;97.90
7461;DHT22;6757;52.258;12.840;2022-07-10T12:15:39;19.60;97.70
7461;DHT22;6757;52.258;12.840;2022-07-10T12:18:09;20.20;97.80
7461;DHT22;6757;52.258;12.840;2022-07-10T12:20:42;20.20;97.60
7461;DHT22;6757;52.258;12.840;2022-07-10T12:23:11;20.80;96.40
7461;DHT22;6757;52.258;12.840;2022-07-10T12:25:41;21.40;95.30
7461;DHT22;6757;52.258;12.840;2022-07-10T12:28:08;21.90;93.60
7461;DHT22;6757;52.258;12.840;2022-07-10T12:30:39;22.40;91.30
7461;DHT22;6757;52.258;12.840;2022-07-10T12:33:12;21.70;89.40
7461;DHT22;6757;52.258;12.840;2022-07-10T12:35:50;21.40;89.80
7461;DHT22;6757;52.258;12.840;2022-07-10T12:38:19;21.10;90.20
7461;DHT22;6757;52.258;12.840;2022-07-10T12:40:48;21.70;90.50
7461;DHT22;6757;52.258;12.840;2022-07-10T12:43:26;20.90;90.30
7461;DHT22;6757;52.258;12.840;2022-07-10T12:46:15;21.10;90.60
7461;DHT22;6757;52.258;12.840;2022-07-10T12:49:02;21.30;90.30
7461;DHT22;6757;52.258;12.840;2022-07-10T12:51:32;21.90;89.10
7461;DHT22;6757;52.258;12.840;2022-07-10T12:54:00;22.60;84.60
7461;DHT22;6757;52.258;12.840;2022-07-10T12:56:32;23.20;79.80
7461;DHT22;6757;52.258;12.840;2022-07-10T12:59:01;23.80;78.60
7461;DHT22;6757;52.258;12.840;2022-07-10T13:01:39;24.70;78.10
7461;DHT22;6757;52.258;12.840;2022-07-10T13:04:09;25.60;76.00
7461;DHT22;6757;52.258;12.840;2022-07-10T13:06:38;26.00;73.30
7461;DHT22;6757;52.258;12.840;2022-07-10T13:09:19;25.90;71.80
7461;DHT22;6757;52.258;12.840;2022-07-10T13:11:47;25.60;70.10
7461;DHT22;6757;52.258;12.840;2022-07-10T13:14:14;25.00;68.60
7461;DHT22;6757;52.258;12.840;2022-07-10T13:16:41;24.50;68.50
7461;DHT22;6757;52.258;12.840;2022-07-10T13:19:09;24.20;69.10
7461;DHT22;6757;52.258;12.840;2022-07-10T13:21:37;24.10;69.60
7461;DHT22;6757;52.258;12.840;2022-07-10T13:24:04;24.10;67.70
7461;DHT22;6757;52.258;12.840;2022-07-10T13:26:32;24.20;67.60
7461;DHT22;6757;52.258;12.840;2022-07-10T13:28:59;24.60;67.30
7461;DHT22;6757;52.258;12.840;2022-07-10T13:31:26;25.40;66.40
7461;DHT22;6757;52.258;12.840;2022-07-10T13:33:53;26.20;65.40
7461;DHT22;6757;52.258;12.840;2022-07-10T13:36:21;26.90;63.20
7461;DHT22;6757;52.258;12.840;2022-07-10T13:38:48;27.60;61.50
7461;DHT22;6757;52.258;12.840;2022-07-10T13:41:17;28.20;60.40
7461;DHT22;6757;52.258;12.840;2022-07-10T13:43:45;28.90;57.60
7461;DHT22;6757;52.258;12.840;2022-07-10T13:46:12;28.90;55.60
7461;DHT22;6757;52.258;12.840;2022-07-10T13:48:39;28.60;55.20
7461;DHT22;6757;52.258;12.840;2022-07-10T13:51:06;28.00;55.30
7461;DHT22;6757;52.258;12.840;2022-07-10T13:53:34;28.10;56.10
7461;DHT22;6757;52.258;12.840;2022-07-10T13:56:03;26.50;56.50
7461;DHT22;6757;52.258;12.840;2022-07-10T13:58:31;26.20;57.60
7461;DHT22;6757;52.258;12.840;2022-07-10T14:00:58;26.40;58.10
7461;DHT22;6757;52.258;12.840;2022-07-10T14:03:25;27.00;58.20
7461;DHT22;6757;52.258;12.840;2022-07-10T14:05:52;26.70;57.60
7461;DHT22;6757;52.258;12.840;2022-07-10T14:08:19;26.30;57.80
7461;DHT22;6757;52.258;12.840;2022-07-10T14:10:47;26.20;58.50
7461;DHT22;6757;52.258;12.840;2022-07-10T14:13:15;25.40;58.60
7461;DHT22;6757;52.258;12.840;2022-07-10T14:15:42;24.90;59.10
7461;DHT22;6757;52.258;12.840;2022-07-10T14:18:10;24.30;59.80
7461;DHT22;6757;52.258;12.840;2022-07-10T14:20:38;23.80;60.50
7461;DHT22;6757;52.258;12.840;2022-07-10T14:23:22;23.40;61.30
7461;DHT22;6757;52.258;12.840;2022-07-10T14:25:51;23.00;61.90
7461;DHT22;6757;52.258;12.840;2022-07-10T14:28:20;22.70;62.10
7461;DHT22;6757;52.258;12.840;2022-07-10T14:30:48;23.20;63.30
7461;DHT22;6757;52.258;12.840;2022-07-10T14:33:16;22.90;63.20
7461;DHT22;6757;52.258;12.840;2022-07-10T14:35:44;23.20;62.80
7461;DHT22;6757;52.258;12.840;2022-07-10T14:38:11;23.50;62.20
7461;DHT22;6757;52.258;12.840;2022-07-10T14:40:38;24.00;62.20
7461;DHT22;6757;52.258;12.840;2022-07-10T14:43:06;24.70;61.70
7461;DHT22;6757;52.258;12.840;2022-07-10T14:45:33;25.20;60.70
7461;DHT22;6757;52.258;12.840;2022-07-10T14:48:00;25.30;59.90
7461;DHT22;6757;52.258;12.840;2022-07-10T14:50:27;25.30;59.60
7461;DHT22;6757;52.258;12.840;2022-07-10T14:52:54;25.20;59.00
7461;DHT22;6757;52.258;12.840;2022-07-10T14:55:21;24.80;59.00
7461;DHT22;6757;52.258;12.840;2022-07-10T14:57:48;24.30;59.20
7461;DHT22;6757;52.258;12.840;2022-07-10T15:00:17;24.00;59.70
7461;DHT22;6757;52.258;12.840;2022-07-10T15:02:44;23.60;60.30
7461;DHT22;6757;52.258;12.840;2022-07-10T15:05:11;23.30;60.70
7461;DHT22;6757;52.258;12.840;2022-07-10T15:07:39;23.80;61.80
7461;DHT22;6757;52.258;12.840;2022-07-10T15:10:07;23.30;61.50
7461;DHT22;6757;52.258;12.840;2022-07-10T15:12:34;23.40;61.60
7461;DHT22;6757;52.258;12.840;2022-07-10T15:15:02;23.50;61.50
7461;DHT22;6757;52.258;12.840;2022-07-10T15:17:31;23.30;60.70
7461;DHT22;6757;52.258;12.840;2022-07-10T15:19:58;23.20;60.50
7461;DHT22;6757;52.258;12.840;2022-07-10T15:22:25;23.00;60.90
7461;DHT22;6757;52.258;12.840;2022-07-10T15:24:52;22.90;61.40
7461;DHT22;6757;52.258;12.840;2022-07-10T15:27:19;22.70;61.60
7461;DHT22;6757;52.258;12.840;2022-07-10T15:29:46;22.50;61.80
7461;DHT22;6757;52.258;12.840;2022-07-10T15:32:12;22.30;61.90
7461;DHT22;6757;52.258;12.840;2022-07-10T15:34:41;22.20;62.10
7461;DHT22;6757;52.258;12.840;2022-07-10T15:37:08;22.20;62.30
7461;DHT22;6757;52.258;12.840;2022-07-10T15:39:35;22.10;62.40
7461;DHT22;6757;52.258;12.840;2022-07-10T15:42:07;22.10;62.50
7461;DHT22;6757;52.258;12.840;2022-07-10T15:44:34;22.00;62.20
7461;DHT22;6757;52.258;12.840;2022-07-10T15:47:01;22.20;62.70
7461;DHT22;6757;52.258;12.840;2022-07-10T15:49:29;21.70;62.80
7461;DHT22;6757;52.258;12.840;2022-07-10T15:51:57;21.60;63.30
7461;DHT22;6757;52.258;12.840;2022-07-10T15:54:25;21.50;63.70
7461;DHT22;6757;52.258;12.840;2022-07-10T15:56:52;21.40;63.70